Jack C. Davis Observatory, Carson City, Nevada Weather observations

Data are for observation ending at time listed.
 Day   Time    Ave.   Ave.  Ave.  Vector   Max.   Stn.    Total    Solar   Ave.  
  of    of     Air    Rel.  Wind   Wind    Wind   Baro.  Precip.   Rad.    Soil  
Year   Day     Temp.  Hum.  Speed  Dir.    Gust   Pres.                    Temp. 
2016   (PST)    F      %     mph   deg.    mph     mb.     in.     W/m2     F   
------------------------------------------------------------------------------
 208   19:20   84.2    12    2.5   216      4.9   601.0    0.00       4    999.0
 208   19:30   81.2    13    4.9   280      9.1   602.3    0.00       2    999.0
 208   19:40   80.8    13    5.7   284      8.7   600.2    0.00       1    999.0
 208   19:50   78.7    14    6.1   256     10.0   600.2    0.00       1    999.0
 208   20:00   83.8     9    6.0   215     13.2   600.1    0.00       0    999.0
 208   20:10   78.5    14    5.2   278      7.5   600.3    0.00       0    999.0
 208   20:20   79.0    13    2.9   269      4.9   600.9    0.00       0    999.0
 208   20:30   78.2    14    4.7   278      9.1   602.9    0.00       0    999.0
 208   20:40   75.3    14    5.9   265      7.5   600.5    0.00       0    999.0
 208   20:50   77.7    12    3.8   287      8.1   600.6    0.00       0    999.0
 208   21:00   79.6    10    1.8    81      5.0   600.7    0.00       0    999.0
 208   21:10   78.2    11    3.5   270      8.3   600.6    0.00       0    999.0
 208   21:20   78.5    11    3.1   268      5.4   600.7    0.00       0    999.0
 208   21:30   79.5    10    5.4   244      8.5   600.4    0.00       0    999.0
 208   21:40   78.4    11    4.1   238      7.2   600.4    0.00       0    999.0
 208   21:50   75.0    12    3.5   289      6.7   600.7    0.00       0    999.0
 208   22:00   74.0    13    3.6   310      5.8   600.6    0.00       0    999.0
 208   22:10   73.3    13    3.6   292      6.9   600.6    0.00       0    999.0
 208   22:20   73.6    12    4.8   261      7.5   600.1    0.00       0    999.0
 208   22:30   71.7    14    4.2   283      6.8   600.1    0.00       0    999.0
 208   22:40   72.1    13    4.8   269      7.7   600.1    0.00       0    999.0
 208   22:50   71.1    13    5.1   265      7.4   600.1    0.00       0    999.0
 208   23:00   69.6    14    4.9   286      7.5   600.1    0.00       0    999.0
 208   23:10   68.5    15    6.1   271      7.8   600.1    0.00       0    999.0
 208   23:20   68.9    14    6.9   266      8.4   600.1    0.00       0    999.0
 208   23:30   68.8    14    6.9   268      8.8   600.1    0.00       0    999.0
 208   23:40   68.1    16    4.3   282      7.6   600.1    0.00       1    999.0
 208   23:50   69.5    14    4.3   276      6.4   600.1    0.00       1    999.0
 209    0:00   70.7    13    3.5   292      4.8   600.1    0.00       0    999.0
 209    0:10   68.4    14    4.5   282      6.6   600.1    0.00       0    999.0
 209    0:20   69.4    14    4.2   280      7.7   600.1    0.00       1    999.0
 209    0:30   67.1    16    4.9   276      6.6   600.1    0.00       0    999.0
 209    0:40   67.0    16    5.2   279      7.2   600.1    0.00       0    999.0
 209    0:50   67.2    16    4.8   271      6.6   600.1    0.00       0    999.0
 209    1:00   66.8    17    4.9   280      6.7   600.1    0.00       0    999.0
 209    1:10   66.7    17    4.5   283      7.1   600.1    0.00       1    999.0
 209    1:20   66.3    18    3.8   285      6.2   600.1    0.00       1    999.0
 209    1:30   66.2    18    2.8   283      5.3   600.1    0.00       0    999.0
 209    1:40   66.6    17    3.2   279      6.2   600.1    0.00       0    999.0
 209    1:50   66.5    18    3.4   308      5.3   600.1    0.00       1    999.0
 209    2:00   66.1    17    4.0   272      7.2   600.1    0.00       1    999.0
 209    2:10   64.7    18    4.3   274      6.9   600.1    0.00       1    999.0
 209    2:20   65.4    17    4.9   275      7.3   600.1    0.00       1    999.0
 209    2:30   64.8    18    4.4   285      8.3   600.1    0.00       1    999.0
 209    2:40   65.2    18    4.2   293      6.3   600.1    0.00       1    999.0
 209    2:50   64.4    19    4.4   283      7.5   600.1    0.00       1    999.0
 209    3:00   63.8    20    5.1   276      7.2   600.1    0.00       1    999.0
 209    3:10   64.1    19    2.9   308      6.5   600.1    0.00       1    999.0
 209    3:20   64.6    19    3.2   280      7.2   600.1    0.00       1    999.0
 209    3:30   63.6    21    2.5   295      6.6   600.1    0.00       1    999.0
 209    3:40   64.3    20    2.7   271      6.7   600.1    0.00       1    999.0
 209    3:50   63.3    22    3.4   292      7.3   600.1    0.00       1    999.0
 209    4:00   61.9    23    4.1   277      8.9   600.1    0.00       1    999.0
 209    4:10   62.2    22    4.3   280      6.6   600.1    0.00       1    999.0
 209    4:20   62.9    21    4.0   281      7.5   600.1    0.00       1    999.0
 209    4:30   63.1    20    3.5   300      7.6   600.1    0.00       1    999.0
 209    4:40   62.8    21    3.2   281      5.1   600.1    0.00       1    999.0
 209    4:50   62.5    20    2.9   255      5.9   600.1    0.00       1    999.0
 209    5:00   61.9    21    3.5   274      6.2   600.1    0.00       3    999.0
 209    5:10   61.2    23    3.3   298      5.4   600.1    0.00      11    999.0
 209    5:20   62.1    22    2.6   291      5.0   600.1    0.00      30    999.0
 209    5:30   63.1    22    3.5   288      4.7   600.1    0.00      55    999.0
 209    5:40   63.0    24    2.8   300      4.6   600.1    0.00      85    999.0
 209    5:50   64.6    23    2.6   307      4.4   600.1    0.00     114    999.0
 209    6:00   66.2    22    2.0   288      3.3   600.1    0.00     142    999.0
 209    6:10   69.4    22    0.7   338      2.0   600.2    0.00     174    999.0
 209    6:20   72.0    20    0.3    99      1.9   600.1    0.00     205    999.0
 209    6:30   71.1    22    1.9   333      3.1   600.4    0.00     236    999.0
 209    6:40   71.2    21    1.4    20      2.7   600.2    0.00     271    999.0
 209    6:50   71.2    20    1.9    55      3.4   600.1    0.00     304    999.0
 209    7:00   71.3    19    1.8    59      4.1   600.1    0.00     339    999.0
 209    7:10   71.4    20    2.2    62      3.9   600.1    0.00     372    999.0
 209    7:20   72.3    20    1.9    89      4.4   600.2    0.00     406    999.0
 209    7:30   73.5    18    2.1    46      3.7   600.4    0.00     438    999.0
 209    7:40   74.4    18    2.5    60      5.3   600.1    0.00     471    999.0
 209    7:50   74.0    18    2.8    73      4.6   600.1    0.00     504    999.0
 209    8:00   74.6    17    2.7    89      4.7   600.1    0.00     536    999.0
 209    8:10   75.8    16    2.7    88      4.6   600.1    0.00     568    999.0
 209    8:20   77.5    15    2.2    99      3.9   600.1    0.00     599    999.0
 209    8:30   79.1    15    2.5    91      4.5   600.4    0.00     628    999.0
 209    8:40   80.3    14    2.7    67      5.2   600.6    0.00     658    999.0
 209    8:50   80.5    14    3.1    78      5.8   600.3    0.00     685    999.0
 209    9:00   82.1    14    2.3   106      4.9   600.2    0.00     713    999.0
 209    9:10   84.5    13    1.9    64      4.5   600.4    0.00     741    999.0
 209    9:20   86.1    13    1.2    53      3.4   600.5    0.00     768    999.0
 209    9:30   88.5    12    2.0   165      4.7   600.6    0.00     792    999.0
 209    9:40   89.5    11    1.7   122      4.3   600.7    0.00     816    999.0
 209    9:50   88.9    12    2.8   101      4.9   600.7    0.00     836    999.0
 209   10:00   89.9    11    2.7   143      5.2   600.6    0.00     856    999.0
 209   10:10   89.6    11    2.9    99      6.3   600.6    0.00     876    999.0
 209   10:20   90.3    10    2.7    63      5.2   600.7    0.00     892    999.0
 209   10:30   91.3     9    3.0    70      6.6   600.8    0.00     908    999.0
 209   10:40   93.1     8    2.3    95      5.2   600.9    0.00     922    999.0
 209   10:50   93.2     8    2.7    86      5.2   602.1    0.00     933    999.0
 209   11:00   93.4     8    3.5   101      6.4   600.7    0.00     945    999.0
 209   11:10   93.9     8    4.3   124      8.3   600.7    0.00     957    999.0
 209   11:20   94.7     8    3.5    92      8.2   600.7    0.00     963    999.0
 209   11:30   95.8     8    3.4    31      9.3   600.8    0.00     970    999.0
 209   11:40   96.2     8    2.5   348      5.5   600.7    0.00     976    999.0
 209   11:50   96.0     8    3.7    83      7.7   600.7    0.00     980    999.0
 209   12:00   96.1     8    3.4    80      6.6   600.7    0.00     981    999.0
 209   12:10   96.9     9    5.0   265     13.5   600.4    0.00     983    999.0
 209   12:20   96.7     9    8.3   268     14.2   600.1    0.00     979    999.0
 209   12:30   96.7     9    9.1   264     17.3   600.1    0.00     976    999.0
 209   12:40   96.2     9    9.3   254     16.3   600.1    0.00     971    999.0
 209   12:50   96.5     9    9.2   280     16.3   600.1    0.00     966    999.0
 209   13:00   97.1     9   11.4   286     21.7   600.1    0.00     958    999.0
 209   13:10   96.4     9   11.3   280     19.1   600.1    0.00     948    999.0
 209   13:20   96.6     9   11.2   278     20.5   600.1    0.00     938    999.0
 209   13:30   96.5     9   12.9   285     21.2   600.1    0.00     927    999.0
 209   13:40   97.0     9   11.0   281     19.4   600.1    0.00     912    999.0
 209   13:50   97.2     9   10.4   272     19.1   600.1    0.00     897    999.0
 209   14:00   97.0     9   10.6   266     18.1   600.1    0.00     880    999.0
 209   14:10   96.4    10   13.7   283     22.9   600.2    0.00     861    999.0
 209   14:20   96.7    10   10.9   268     19.9   600.7    0.00     840    999.0
 209   14:30   96.3    10   11.2   258     18.0   600.6    0.00     819    999.0
 209   14:40   95.9    10   12.7   267     22.3   600.6    0.00     795    999.0
 209   14:50   95.8    10   11.9   273     21.5   600.5    0.00     770    999.0
 209   15:00   95.9    10   11.2   274     19.1   600.8    0.00     744    999.0
 209   15:10   96.0    10   12.0   276     20.8   601.0    0.00     718    999.0
 209   15:20   95.7    10   12.6   265     20.9   601.4    0.00     694    999.0
 209   15:30   95.1    11   12.9   268     25.0   601.5    0.00     662    999.0
 209   15:40   94.5    11   14.9   266     24.5   601.0    0.00     632    999.0
 209   15:50   94.1    12   14.8   270     28.9   600.9    0.00     604    999.0
 209   16:00   93.9    12   14.3   270     23.5   600.9    0.00     573    999.0
 209   16:10   93.5    13   14.4   262     26.5   601.0    0.00     542    999.0
 209   16:20   93.3    13   16.5   275     25.9   601.0    0.00     513    999.0
 209   16:30   93.0    13   14.5   268     30.0   600.8    0.00     482    999.0
 209   16:40   92.8    13   14.7   270     29.1   600.8    0.00     451    999.0
 209   16:50   92.5    13   14.2   273     24.0   601.1    0.00     417    999.0
 209   17:00   92.1    13   14.9   265     23.5   601.1    0.00     384    999.0
 209   17:10   92.1    13   12.2   264     25.1   601.1    0.00     352    999.0
 209   17:20   91.4    13   15.3   265     26.5   601.0    0.00     321    999.0
 209   17:30   90.9    13   14.5   256     21.7   601.0    0.00     288    999.0
 209   17:40   90.6    13   15.9   262     27.0   601.0    0.00     255    999.0
 209   17:50   90.3    13   14.4   265     25.4   610.8    0.00     222    999.0
 209   18:00   89.9    14   13.2   258     22.2   600.9    0.00     191    999.0
 209   18:10   89.2    14   12.1   258     21.2   601.0    0.00     128    999.0
 209   18:20   88.2    14   13.9   261     24.4   636.8    0.00      31    999.0
 209   18:30   87.9    14   13.3   258     23.1   600.9    0.00      27    999.0
 209   18:40   87.7    14   13.9   260     20.8   600.9    0.00      24    999.0
 209   18:50   87.3    15   12.2   256     20.8   600.9    0.00      20    999.0
 209   19:00   87.0    15   11.3   258     20.2   600.9    0.00      16    999.0
 209   19:10   87.0    15   11.9   260     19.6   600.9    0.00      11    999.0

Return to Yerington, Nevada graphs page.


Western Regional Climate Center,wrcc@dri.edu